Time;durP1;ratioP1;P1;durP2;ratioP2;P2;SDS_P1;SDS_P2;PMS_P1;PMS_P2;Temp;Humidity;BMP_temperature;BMP_pressure;BME280_temperature;BME280_humidity;BME280_pressure;Samples;Min_cycle;Max_cycle;Signal;HPM_P1;HPM_P2
2022/11/03 12:29:54;;;;;;;6.47;1.88;;;16.10;99.90;;;;;;5149081;27;20497;-83
2022/11/03 12:32:23;;;;;;;5.45;1.60;;;16.00;99.90;;;;;;5129980;27;20047;-82
2022/11/03 12:34:49;;;;;;;8.20;1.83;;;16.00;99.90;;;;;;5110482;27;20129;-84
2022/11/03 12:37:17;;;;;;;10.73;2.35;;;16.00;99.90;;;;;;5143666;27;20115;-83
2022/11/03 12:39:43;;;;;;;8.63;2.00;;;16.00;99.90;;;;;;5126269;28;20031;-85
2022/11/03 12:42:09;;;;;;;8.82;2.50;;;16.00;99.90;;;;;;5107783;27;20200;-84
2022/11/03 12:44:36;;;;;;;9.82;2.50;;;15.90;99.90;;;;;;5103863;28;20491;-83
2022/11/03 12:47:03;;;;;;;8.77;2.40;;;15.90;99.90;;;;;;5125985;27;20049;-83
2022/11/03 12:49:29;;;;;;;6.90;1.77;;;15.90;99.90;;;;;;5107175;28;20127;-84
2022/11/03 12:51:55;;;;;;;9.40;2.30;;;15.80;99.90;;;;;;5122154;27;20031;-84
2022/11/03 12:54:21;;;;;;;9.80;2.22;;;15.80;99.90;;;;;;5146942;27;20118;-83
2022/11/03 12:56:47;;;;;;;9.98;2.25;;;15.80;99.90;;;;;;5117123;27;20035;-83
2022/11/03 12:59:12;;;;;;;12.18;2.40;;;15.90;99.90;;;;;;5119834;27;20043;-85
2022/11/03 13:01:41;;;;;;;10.75;2.97;;;16.00;99.90;;;;;;5110539;27;20596;-83
2022/11/03 13:04:07;;;;;;;8.60;2.30;;;16.10;99.90;;;;;;5126663;27;20040;-83
2022/11/03 13:06:35;;;;;;;8.80;2.90;;;16.30;99.90;;;;;;5101698;28;20052;-84
2022/11/03 13:09:03;;;;;;;5.93;2.10;;;16.40;99.90;;;;;;5108536;27;20035;-84
2022/11/03 13:14:13;;;;;;;8.25;2.20;;;16.60;99.90;;;;;;5126943;27;20487;-83
2022/11/03 13:16:39;;;;;;;10.68;2.80;;;16.60;99.90;;;;;;5124653;27;20047;-83
2022/11/03 13:19:04;;;;;;;5.85;2.00;;;16.60;99.90;;;;;;5106669;28;20461;-83
2022/11/03 13:21:30;;;;;;;6.28;2.03;;;16.50;99.90;;;;;;5122958;27;20066;-82
2022/11/03 13:23:56;;;;;;;10.30;1.80;;;16.60;99.90;;;;;;5119515;27;20036;-82
2022/11/03 13:26:21;;;;;;;7.40;1.98;;;16.60;99.90;;;;;;5114628;27;20040;-82
2022/11/03 13:28:47;;;;;;;7.75;2.10;;;16.60;99.90;;;;;;5124691;27;20473;-83
2022/11/03 13:31:13;;;;;;;5.63;1.50;;;16.60;99.90;;;;;;5122368;27;20051;-81
2022/11/03 13:33:38;;;;;;;6.90;1.95;;;16.50;99.90;;;;;;5103269;27;20047;-84
2022/11/03 13:36:05;;;;;;;8.80;2.20;;;16.40;99.90;;;;;;5108621;27;20038;-82
2022/11/03 13:38:30;;;;;;;8.70;1.80;;;16.30;99.90;;;;;;5133995;27;20128;-82
2022/11/03 13:40:56;;;;;;;9.23;1.88;;;16.30;99.90;;;;;;5104268;27;20094;-85
2022/11/03 13:43:22;;;;;;;5.97;1.80;;;16.30;99.90;;;;;;5093927;28;20039;-82
2022/11/03 13:45:47;;;;;;;7.28;1.92;;;16.30;99.90;;;;;;5077595;27;20042;-83
2022/11/03 13:48:13;;;;;;;5.38;1.48;;;16.30;99.90;;;;;;5078751;28;20043;-82
2022/11/03 13:50:39;;;;;;;7.38;1.88;;;16.30;99.90;;;;;;5095180;28;20049;-82
2022/11/03 13:53:05;;;;;;;7.95;1.83;;;16.30;99.90;;;;;;5076956;27;20222;-82
2022/11/03 13:55:31;;;;;;;8.75;1.60;;;16.20;99.90;;;;;;5104653;27;20672;-83
2022/11/03 13:57:56;;;;;;;8.98;1.85;;;15.90;99.90;;;;;;5111812;28;20044;-85
2022/11/03 14:00:22;;;;;;;8.18;1.80;;;15.80;99.90;;;;;;5091859;28;20032;-82
2022/11/03 14:02:49;;;;;;;7.40;1.92;;;15.60;99.90;;;;;;5106614;28;20404;-82
2022/11/03 14:05:15;;;;;;;6.32;1.70;;;15.50;99.90;;;;;;5111597;28;20042;-82
2022/11/03 14:07:41;;;;;;;7.88;1.85;;;15.40;99.90;;;;;;5130202;27;20047;-82
2022/11/03 14:10:07;;;;;;;12.38;2.40;;;15.20;99.90;;;;;;5123148;27;20047;-83
2022/11/03 14:12:34;;;;;;;11.60;2.13;;;15.20;99.90;;;;;;5102585;28;20062;-82
2022/11/03 14:15:09;;;;;;;9.07;2.10;;;15.10;99.90;;;;;;5121753;27;20122;-85
2022/11/03 14:17:36;;;;;;;4.22;2.08;;;15.10;99.90;;;;;;5102750;27;20051;-82
2022/11/03 14:20:03;;;;;;;6.22;1.60;;;15.10;99.90;;;;;;5123655;27;20196;-85
2022/11/03 14:22:31;;;;;;;7.82;1.92;;;15.10;99.90;;;;;;5089551;28;20473;-83
2022/11/03 14:24:57;;;;;;;6.07;1.75;;;15.20;99.90;;;;;;5112236;27;20035;-82
2022/11/03 14:27:23;;;;;;;8.48;2.40;;;15.20;99.90;;;;;;5109237;28;20051;-82
2022/11/03 14:29:49;;;;;;;4.80;1.85;;;15.20;99.90;;;;;;5107495;28;20120;-82
2022/11/03 14:32:16;;;;;;;5.43;1.77;;;15.20;99.90;;;;;;5108504;28;20032;-83
2022/11/03 14:34:45;;;;;;;6.20;1.90;;;15.10;99.90;;;;;;5094285;28;20082;-84
2022/11/03 14:37:12;;;;;;;12.93;1.85;;;15.10;99.90;;;;;;5136459;27;20043;-82
2022/11/03 14:39:38;;;;;;;5.65;1.80;;;15.00;99.90;;;;;;5126229;27;20469;-82
2022/11/03 14:42:05;;;;;;;5.60;1.85;;;15.00;99.90;;;;;;5110719;28;20042;-86
2022/11/03 14:44:32;;;;;;;7.30;1.75;;;15.00;99.90;;;;;;5128469;27;20055;-82
2022/11/03 14:47:01;;;;;;;11.55;1.98;;;15.10;99.90;;;;;;5092159;28;20054;-82
2022/11/03 14:49:28;;;;;;;7.47;1.88;;;15.00;99.90;;;;;;5138318;27;20475;-82
2022/11/03 14:51:55;;;;;;;5.10;1.48;;;15.00;99.90;;;;;;5132630;27;20039;-82
2022/11/03 14:54:22;;;;;;;5.60;1.70;;;14.90;99.90;;;;;;5112064;27;20032;-84
2022/11/03 14:56:47;;;;;;;6.97;1.83;;;14.80;99.90;;;;;;5119855;27;20549;-82
2022/11/03 14:59:14;;;;;;;5.18;1.73;;;14.80;99.90;;;;;;5091007;28;20048;-82
2022/11/03 15:01:40;;;;;;;6.07;1.75;;;14.70;99.90;;;;;;5113306;27;20491;-82
2022/11/03 15:04:06;;;;;;;6.82;1.88;;;14.60;99.90;;;;;;5076417;28;20078;-89
2022/11/03 15:06:33;;;;;;;7.63;1.35;;;14.50;99.90;;;;;;5127048;27;20049;-82
2022/11/03 15:09:02;;;;;;;7.10;1.75;;;14.40;99.90;;;;;;5089236;28;20489;-82
2022/11/03 15:11:31;;;;;;;5.43;1.35;;;14.40;99.90;;;;;;5108763;27;20038;-82
2022/11/03 15:13:56;;;;;;;8.18;1.98;;;14.30;99.90;;;;;;5112348;27;20050;-85
2022/11/03 15:16:22;;;;;;;4.32;1.63;;;14.20;99.90;;;;;;5109653;27;20039;-85
2022/11/03 15:18:49;;;;;;;4.45;1.75;;;14.10;99.90;;;;;;5107865;27;20553;-80
2022/11/03 15:21:15;;;;;;;9.27;2.28;;;14.10;99.90;;;;;;5103079;28;20028;-82
2022/11/03 15:23:41;;;;;;;6.90;1.75;;;14.00;99.90;;;;;;5119681;27;20097;-84
2022/11/03 15:26:06;;;;;;;8.32;1.90;;;13.90;99.90;;;;;;5110333;28;20055;-86
2022/11/03 15:28:32;;;;;;;8.35;2.03;;;13.90;99.90;;;;;;5080915;28;20066;-88
2022/11/03 15:30:58;;;;;;;6.63;2.20;;;13.80;99.90;;;;;;5104668;28;20488;-82
2022/11/03 15:33:24;;;;;;;7.55;1.85;;;13.80;99.90;;;;;;5100794;28;20036;-83
2022/11/03 15:35:50;;;;;;;7.72;1.85;;;13.80;99.90;;;;;;5110638;28;20035;-83
2022/11/03 15:38:15;;;;;;;8.30;1.98;;;13.70;99.90;;;;;;5096640;28;20039;-82
2022/11/03 15:40:41;;;;;;;7.15;2.45;;;13.60;99.90;;;;;;5109856;28;20047;-85
2022/11/03 15:43:07;;;;;;;7.70;1.98;;;13.60;99.90;;;;;;5120802;27;20065;-83
2022/11/03 15:45:34;;;;;;;9.07;2.33;;;13.60;99.90;;;;;;5110234;28;20055;-84
2022/11/03 15:48:00;;;;;;;7.28;2.35;;;13.50;99.90;;;;;;5102247;27;20038;-83
2022/11/03 15:50:27;;;;;;;9.30;3.50;;;13.40;99.90;;;;;;5107976;28;20054;-83
2022/11/03 15:52:56;;;;;;;8.70;3.08;;;13.50;99.90;;;;;;5139271;27;20047;-82
2022/11/03 15:55:21;;;;;;;9.23;3.03;;;13.40;99.90;;;;;;5089059;28;20077;-84
2022/11/03 15:57:48;;;;;;;11.55;2.88;;;13.40;99.90;;;;;;5107406;28;20047;-83
2022/11/03 16:00:14;;;;;;;5.43;2.00;;;13.30;99.90;;;;;;5101363;28;20476;-86
2022/11/03 16:02:40;;;;;;;7.65;2.30;;;13.30;99.90;;;;;;5105255;28;20051;-81
2022/11/03 16:05:08;;;;;;;8.27;2.13;;;13.40;99.90;;;;;;5115642;27;20210;-83
2022/11/03 16:07:33;;;;;;;9.80;2.53;;;13.30;99.90;;;;;;5110061;27;20472;-82
2022/11/03 16:09:59;;;;;;;9.95;2.75;;;13.30;99.90;;;;;;5090626;28;20725;-87
2022/11/03 16:12:25;;;;;;;9.52;2.40;;;13.20;99.90;;;;;;5141036;27;20031;-82
2022/11/03 16:14:51;;;;;;;7.93;2.00;;;13.30;99.90;;;;;;5112622;27;20084;-85
2022/11/03 16:17:17;;;;;;;7.90;2.03;;;13.30;99.90;;;;;;5111139;28;20078;-87
2022/11/03 16:19:43;;;;;;;6.75;2.08;;;13.20;99.90;;;;;;5075793;28;20431;-81
2022/11/03 16:22:12;;;;;;;8.52;1.60;;;13.20;99.90;;;;;;5107632;28;20175;-82
2022/11/03 16:24:37;;;;;;;5.18;1.95;;;13.20;99.90;;;;;;5088079;28;20561;-82
2022/11/03 16:27:03;;;;;;;9.82;2.38;;;13.20;99.90;;;;;;5090939;28;20039;-81
2022/11/03 16:29:29;;;;;;;6.03;2.10;;;13.20;99.90;;;;;;5083479;28;20071;-81
2022/11/03 16:31:55;;;;;;;7.45;2.25;;;13.20;99.90;;;;;;5106681;28;20480;-80
2022/11/03 16:34:20;;;;;;;8.23;2.17;;;13.20;99.90;;;;;;5108936;28;20429;-81
2022/11/03 16:36:46;;;;;;;7.00;1.85;;;13.20;99.90;;;;;;5125198;27;20047;-81
2022/11/03 16:39:12;;;;;;;5.95;1.75;;;13.20;99.90;;;;;;5092962;28;20050;-80
2022/11/03 16:41:37;;;;;;;7.68;2.40;;;13.10;99.90;;;;;;5093246;28;20040;-82
2022/11/03 16:44:03;;;;;;;8.43;2.22;;;13.10;99.90;;;;;;5076969;28;20465;-81
2022/11/03 16:46:29;;;;;;;10.23;2.38;;;13.20;99.90;;;;;;5106308;28;20445;-83
2022/11/03 16:48:54;;;;;;;9.65;2.20;;;13.20;99.90;;;;;;5089605;28;20039;-82
2022/11/03 16:51:20;;;;;;;7.80;2.33;;;13.20;99.90;;;;;;5092776;28;20135;-86
2022/11/03 16:53:46;;;;;;;13.45;2.33;;;13.20;99.90;;;;;;5092342;28;20044;-82
2022/11/03 16:56:12;;;;;;;9.20;2.80;;;13.20;99.90;;;;;;5082013;28;20094;-82
2022/11/03 16:58:38;;;;;;;7.80;2.00;;;13.20;99.90;;;;;;5097858;28;20044;-85
2022/11/03 17:01:04;;;;;;;7.70;2.83;;;13.20;99.90;;;;;;5129632;27;20421;-81
2022/11/03 17:03:30;;;;;;;6.22;1.85;;;13.20;99.90;;;;;;5102232;28;20484;-82
2022/11/03 17:05:56;;;;;;;6.40;1.77;;;13.20;99.90;;;;;;5098647;28;20044;-83
2022/11/03 17:08:23;;;;;;;6.80;1.75;;;13.20;99.90;;;;;;5131796;27;21833;-86
2022/11/03 17:10:49;;;;;;;7.63;2.50;;;13.10;99.90;;;;;;5053355;28;20050;-86
2022/11/03 17:13:14;;;;;;;6.30;3.08;;;13.10;99.90;;;;;;5102826;28;20375;-87
2022/11/03 17:15:40;;;;;;;3.67;2.47;;;13.00;99.90;;;;;;5104710;27;20039;-83
2022/11/03 17:18:06;;;;;;;5.50;2.22;;;13.00;99.90;;;;;;5091308;27;20058;-83
2022/11/03 17:20:32;;;;;;;5.65;2.67;;;12.90;99.90;;;;;;5104825;27;20054;-85
2022/11/03 17:22:57;;;;;;;10.90;2.83;;;12.80;99.90;;;;;;5116747;27;20035;-84
2022/11/03 17:25:23;;;;;;;4.07;2.05;;;12.70;99.90;;;;;;5075623;28;20071;-83
2022/11/03 17:27:55;;;;;;;8.15;2.60;;;12.60;99.90;;;;;;5119308;27;20039;-83
2022/11/03 17:30:23;;;;;;;11.82;4.30;;;12.50;99.90;;;;;;5081646;27;20048;-85
2022/11/03 17:32:52;;;;;;;8.18;3.38;;;12.40;99.90;;;;;;5092973;28;20044;-86
2022/11/03 17:35:45;;;;;;;8.85;3.30;;;12.30;99.90;;;;;;5102704;27;20047;-86
2022/11/03 17:38:14;;;;;;;10.10;5.43;;;12.20;99.90;;;;;;5089609;27;20104;-84
2022/11/03 17:40:45;;;;;;;9.85;4.10;;;12.10;99.90;;;;;;5116340;27;20480;-84
2022/11/03 17:43:23;;;;;;;5.90;2.75;;;11.90;99.90;;;;;;5111001;27;20134;-85
2022/11/03 17:45:49;;;;;;;4.55;2.63;;;11.80;99.90;;;;;;5098727;27;20807;-86
2022/11/03 17:48:15;;;;;;;10.38;4.45;;;11.70;99.90;;;;;;5127395;27;20040;-86
2022/11/03 17:50:48;;;;;;;7.95;3.13;;;11.70;99.90;;;;;;5094390;27;20096;-87
2022/11/03 17:53:21;;;;;;;9.20;3.13;;;11.60;99.90;;;;;;5105599;27;20108;-87
2022/11/03 17:55:49;;;;;;;11.25;3.70;;;11.50;99.90;;;;;;5093241;27;20058;-86
2022/11/03 17:58:15;;;;;;;13.65;4.07;;;11.50;99.90;;;;;;5102180;27;20043;-84
2022/11/03 18:00:41;;;;;;;10.18;3.70;;;11.50;99.90;;;;;;5095958;27;20048;-85
2022/11/03 18:03:11;;;;;;;15.25;5.93;;;11.40;99.90;;;;;;5098577;27;20091;-85
2022/11/03 18:05:37;;;;;;;11.02;4.57;;;11.40;99.90;;;;;;5128640;27;20067;-86
2022/11/03 18:08:08;;;;;;;12.75;5.15;;;11.40;99.90;;;;;;5132711;27;20176;-87
2022/11/03 18:10:38;;;;;;;10.20;3.80;;;11.40;99.90;;;;;;5095619;27;20454;-87
2022/11/03 18:13:26;;;;;;;13.70;4.47;;;11.40;99.90;;;;;;5120227;27;20047;-88
2022/11/03 18:19:20;;;;;;;;;;;11.40;99.90;;;;;;5052253;27;20047;-86
2022/11/03 18:21:46;;;;;;;11.27;4.37;;;11.30;99.90;;;;;;5096054;27;19924;-83
2022/11/03 18:24:15;;;;;;;13.60;5.75;;;11.30;99.90;;;;;;5076051;27;20063;-83
2022/11/03 18:26:41;;;;;;;9.90;5.00;;;11.30;99.90;;;;;;5098147;27;20603;-82
2022/11/03 18:29:07;;;;;;;11.20;5.38;;;11.30;99.90;;;;;;5064701;28;20131;-85
2022/11/03 18:31:42;;;;;;;14.27;5.53;;;11.30;99.90;;;;;;5110753;27;20043;-83
2022/11/03 18:34:19;;;;;;;14.38;5.65;;;11.20;99.90;;;;;;5110939;28;20042;-84
2022/11/03 18:36:45;;;;;;;17.25;6.45;;;11.30;99.90;;;;;;5110111;28;20043;-85
2022/11/03 18:39:18;;;;;;;16.65;6.65;;;11.30;99.90;;;;;;5111007;28;20047;-85
2022/11/03 18:41:44;;;;;;;17.48;6.68;;;11.30;99.90;;;;;;5112463;27;20366;-85
2022/11/03 18:44:43;;;;;;;20.52;7.60;;;11.30;99.90;;;;;;5112211;28;20055;-85
2022/11/03 18:47:09;;;;;;;15.98;6.53;;;11.30;99.90;;;;;;5096469;27;20048;-83
2022/11/03 18:49:36;;;;;;;18.15;8.50;;;11.30;99.90;;;;;;5062566;28;20082;-83
2022/11/03 18:52:09;;;;;;;17.08;7.97;;;11.20;99.90;;;;;;5107581;27;20104;-84
2022/11/03 18:54:35;;;;;;;18.58;8.25;;;11.20;99.90;;;;;;5110338;28;20090;-85
2022/11/03 18:57:01;;;;;;;17.15;7.50;;;11.20;99.90;;;;;;5083544;28;20086;-84
2022/11/03 18:59:35;;;;;;;14.80;8.77;;;11.20;99.90;;;;;;5077352;28;20043;-86
2022/11/03 19:02:02;;;;;;;24.08;9.38;;;11.20;99.90;;;;;;5093372;27;20055;-85
2022/11/03 19:04:28;;;;;;;25.98;10.05;;;11.20;99.90;;;;;;5111160;27;20110;-85
2022/11/03 19:06:55;;;;;;;17.33;9.10;;;11.20;99.90;;;;;;5094129;28;20119;-85
2022/11/03 19:09:25;;;;;;;18.23;9.48;;;11.20;99.90;;;;;;5112281;28;20036;-86
2022/11/03 19:11:54;;;;;;;22.92;9.98;;;11.20;99.90;;;;;;5106338;28;20115;-83
2022/11/03 19:14:26;;;;;;;22.98;10.63;;;11.20;99.90;;;;;;5111086;27;20039;-85
2022/11/03 19:16:54;;;;;;;18.55;10.30;;;11.20;99.90;;;;;;5109377;28;20082;-86
2022/11/03 19:19:20;;;;;;;24.45;11.25;;;11.20;99.90;;;;;;5110390;28;20042;-86
2022/11/03 19:21:47;;;;;;;19.73;10.60;;;11.20;99.90;;;;;;5076438;28;20047;-86
2022/11/03 19:24:12;;;;;;;20.35;9.90;;;11.20;99.90;;;;;;5111554;27;20044;-84
2022/11/03 19:27:18;;;;;;;24.65;11.93;;;11.20;99.90;;;;;;5092736;28;20035;-85
2022/11/03 19:29:46;;;;;;;23.10;10.45;;;11.20;99.90;;;;;;5102811;28;20051;-84
2022/11/03 19:32:20;;;;;;;24.17;12.60;;;11.20;99.90;;;;;;5109229;28;20044;-84
2022/11/03 19:35:28;;;;;;;21.55;11.43;;;11.20;99.90;;;;;;5118232;27;20054;-85
2022/11/03 19:38:12;;;;;;;20.55;12.00;;;11.20;99.90;;;;;;5083823;28;20054;-87
2022/11/03 19:43:36;;;;;;;27.43;13.40;;;11.20;99.90;;;;;;5108490;28;20116;-84
2022/11/03 19:46:15;;;;;;;24.70;14.20;;;11.20;99.90;;;;;;5123314;27;20297;-86
2022/11/03 19:48:44;;;;;;;27.98;14.13;;;11.20;99.90;;;;;;5080890;28;20040;-84
2022/11/03 19:51:12;;;;;;;20.98;12.38;;;11.20;99.90;;;;;;5109841;28;20495;-85
2022/11/03 19:53:37;;;;;;;28.73;16.52;;;11.20;99.90;;;;;;5092468;28;20096;-85
2022/11/03 19:56:04;;;;;;;25.48;14.57;;;11.20;99.90;;;;;;5119589;27;20059;-83
2022/11/03 19:58:30;;;;;;;28.17;15.25;;;11.20;99.90;;;;;;5084114;28;20040;-83
2022/11/03 20:00:56;;;;;;;26.40;16.67;;;11.20;99.90;;;;;;5073121;28;20051;-86
2022/11/03 20:03:22;;;;;;;26.58;16.27;;;11.20;99.90;;;;;;5083840;28;20082;-85
2022/11/03 20:05:52;;;;;;;27.58;16.15;;;11.20;99.90;;;;;;5107284;27;20042;-85
2022/11/03 20:08:23;;;;;;;29.17;16.73;;;11.20;99.90;;;;;;5109275;28;20433;-85
2022/11/03 20:10:49;;;;;;;27.17;17.35;;;11.10;99.90;;;;;;5108472;28;20039;-83
2022/11/03 20:13:17;;;;;;;31.65;17.85;;;11.10;99.90;;;;;;5081803;28;20496;-83
2022/11/03 20:15:43;;;;;;;34.45;20.20;;;11.20;99.90;;;;;;5106785;27;20172;-85
2022/11/03 20:18:11;;;;;;;33.97;18.67;;;11.20;99.90;;;;;;5092468;28;20122;-84
2022/11/03 20:20:37;;;;;;;34.05;18.52;;;11.20;99.90;;;;;;5126180;27;20044;-85
2022/11/03 20:23:04;;;;;;;24.75;17.63;;;11.10;99.90;;;;;;5125471;27;20503;-83
2022/11/03 20:25:33;;;;;;;33.65;20.00;;;11.20;99.90;;;;;;5092033;28;20504;-85
2022/11/03 20:28:00;;;;;;;36.05;20.42;;;11.20;99.90;;;;;;5124598;27;20051;-85
2022/11/03 20:30:53;;;;;;;35.60;21.33;;;11.20;99.90;;;;;;5108347;28;20698;-86
2022/11/03 20:33:21;;;;;;;43.05;21.85;;;11.20;99.90;;;;;;5104975;28;20055;-83
2022/11/03 20:35:48;;;;;;;41.17;22.70;;;11.20;99.90;;;;;;5108572;28;20676;-84
2022/11/03 20:38:17;;;;;;;29.80;17.73;;;11.20;99.90;;;;;;5119542;28;20054;-84
2022/11/03 20:40:44;;;;;;;30.85;19.63;;;11.20;99.90;;;;;;5108897;28;20481;-85
2022/11/03 20:43:23;;;;;;;38.28;20.92;;;11.20;99.90;;;;;;5077780;28;20048;-86
2022/11/03 20:45:48;;;;;;;34.40;20.45;;;11.20;99.90;;;;;;5078011;28;20048;-83
2022/11/03 20:48:15;;;;;;;36.03;20.75;;;11.20;99.90;;;;;;5094406;28;20047;-84
2022/11/03 20:50:41;;;;;;;36.63;19.92;;;11.20;99.90;;;;;;5116925;27;20077;-83
2022/11/03 20:53:16;;;;;;;35.75;21.00;;;11.20;99.90;;;;;;5113691;27;20350;-83
2022/11/03 20:55:42;;;;;;;37.47;22.33;;;11.20;99.90;;;;;;5113876;27;20048;-84
2022/11/03 20:58:14;;;;;;;41.72;24.08;;;11.20;99.90;;;;;;5092647;28;20472;-85
2022/11/03 21:00:42;;;;;;;40.78;22.75;;;11.20;99.90;;;;;;5116619;27;20051;-84
2022/11/03 21:03:20;;;;;;;47.95;24.17;;;11.20;99.90;;;;;;5090674;27;20035;-84
2022/11/03 21:05:46;;;;;;;35.22;22.65;;;11.20;99.90;;;;;;5108658;27;20039;-84
2022/11/03 21:08:12;;;;;;;37.33;23.63;;;11.20;99.90;;;;;;5109111;27;20124;-83
2022/11/03 21:10:39;;;;;;;45.70;26.30;;;11.20;99.90;;;;;;5095075;27;20055;-82
2022/11/03 21:13:11;;;;;;;40.88;25.38;;;11.20;99.90;;;;;;5086898;28;20377;-84
2022/11/03 21:21:06;;;;;;;42.45;25.15;;;11.20;99.90;;;;;;5105543;27;20150;-82
2022/11/03 21:23:33;;;;;;;40.90;23.77;;;11.20;99.90;;;;;;5084442;27;20361;-83
2022/11/03 21:25:59;;;;;;;39.80;22.38;;;11.20;99.90;;;;;;5136964;27;20051;-84
2022/11/03 21:28:25;;;;;;;48.65;26.67;;;11.10;99.90;;;;;;5085755;27;20031;-84
2022/11/03 21:30:59;;;;;;;35.22;22.63;;;11.20;99.90;;;;;;5102355;27;20519;-80
2022/11/03 21:33:25;;;;;;;34.20;22.25;;;11.20;99.90;;;;;;5099735;27;20048;-80
2022/11/03 21:35:51;;;;;;;45.47;24.50;;;11.20;99.90;;;;;;5114929;27;20039;-80
2022/11/03 21:38:17;;;;;;;40.80;24.27;;;11.20;99.90;;;;;;5103617;27;20347;-81
2022/11/03 21:40:48;;;;;;;43.75;25.90;;;11.20;99.90;;;;;;5085894;27;20083;-82
2022/11/03 21:46:06;;;;;;;40.17;25.67;;;11.20;99.90;;;;;;5108014;27;20056;-83
2022/11/03 21:51:36;;;;;;;45.55;25.98;;;11.20;99.90;;;;;;5048827;28;20063;-82
2022/11/03 21:54:03;;;;;;;43.97;27.15;;;11.20;99.90;;;;;;5096901;28;20052;-82
2022/11/03 21:56:28;;;;;;;42.35;26.85;;;11.20;99.90;;;;;;5073094;28;20082;-81
2022/11/03 21:58:54;;;;;;;54.22;30.83;;;11.20;99.90;;;;;;5128155;27;20067;-82
2022/11/03 22:01:20;;;;;;;56.50;31.38;;;11.20;99.90;;;;;;5110346;28;20180;-82
2022/11/03 22:03:46;;;;;;;54.33;28.65;;;11.20;99.90;;;;;;5078173;28;20043;-82
2022/11/03 22:06:12;;;;;;;53.63;30.60;;;11.20;99.90;;;;;;5145173;27;20130;-82
2022/11/03 22:08:38;;;;;;;55.90;30.88;;;11.20;99.90;;;;;;5094014;28;20070;-81
2022/11/03 22:11:20;;;;;;;40.42;27.73;;;11.20;99.90;;;;;;5093770;28;20067;-82
2022/11/03 22:13:54;;;;;;;62.33;33.50;;;11.20;99.90;;;;;;5111768;27;20071;-81
2022/11/03 22:16:35;;;;;;;47.88;29.27;;;11.20;99.90;;;;;;5110561;27;20043;-82
2022/11/03 22:27:14;;;;;;;46.80;29.38;;;11.20;99.90;;;;;;5121622;27;20040;-81
2022/11/03 22:32:24;;;;;;;52.03;28.83;;;11.10;99.90;;;;;;5110079;27;20075;-81
2022/11/03 22:37:34;;;;;;;49.30;28.15;;;11.10;99.90;;;;;;5114708;27;20046;-81
2022/11/03 22:48:12;;;;;;;42.67;27.85;;;11.10;99.90;;;;;;5107428;28;20040;-81
2022/11/03 22:50:38;;;;;;;39.92;25.70;;;11.10;99.90;;;;;;5099730;27;20107;-82
2022/11/03 22:55:50;;;;;;;43.60;27.10;;;11.20;99.90;;;;;;5110615;28;20111;-81
2022/11/03 22:58:15;;;;;;;40.63;27.17;;;11.20;99.90;;;;;;5110935;27;20383;-81
2022/11/03 23:00:41;;;;;;;37.20;26.42;;;11.20;99.90;;;;;;5111541;28;20043;-82
2022/11/03 23:03:07;;;;;;;41.42;27.20;;;11.10;99.90;;;;;;5110809;28;20047;-82
2022/11/03 23:05:33;;;;;;;44.72;28.83;;;11.20;99.90;;;;;;5143849;27;20039;-81
2022/11/03 23:07:59;;;;;;;51.20;30.45;;;11.20;99.90;;;;;;5112344;27;20100;-81
2022/11/03 23:10:27;;;;;;;43.50;29.10;;;11.20;99.90;;;;;;5109500;28;20051;-81
2022/11/03 23:12:59;;;;;;;41.70;27.35;;;11.20;99.90;;;;;;5083887;28;20097;-82
2022/11/03 23:15:31;;;;;;;41.08;27.88;;;11.20;99.90;;;;;;5122720;27;20047;-81
2022/11/03 23:21:06;;;;;;;34.92;26.10;;;11.10;99.90;;;;;;5098332;28;20048;-82
2022/11/03 23:26:24;;;;;;;37.25;26.23;;;11.20;99.90;;;;;;5110938;27;20539;-82
2022/11/03 23:28:49;;;;;;;40.10;27.55;;;11.10;99.90;;;;;;5101806;27;20044;-82
2022/11/03 23:31:16;;;;;;;36.60;25.88;;;11.10;99.90;;;;;;5068859;28;20116;-83
2022/11/03 23:33:42;;;;;;;32.17;22.92;;;11.20;99.90;;;;;;5109691;28;20039;-82
2022/11/03 23:36:10;;;;;;;43.42;27.55;;;11.20;99.90;;;;;;5141263;27;20055;-81
2022/11/03 23:38:37;;;;;;;40.90;26.45;;;11.20;99.90;;;;;;5109899;27;20103;-82
2022/11/03 23:41:05;;;;;;;36.78;25.40;;;11.20;99.90;;;;;;5091671;27;20058;-82
2022/11/03 23:43:31;;;;;;;42.20;26.25;;;11.20;99.90;;;;;;5093232;28;20039;-83
2022/11/03 23:48:47;;;;;;;48.10;27.63;;;11.10;99.90;;;;;;5135944;27;20044;-82
2022/11/03 23:51:14;;;;;;;44.17;27.55;;;11.20;99.90;;;;;;5135226;27;20046;-83
2022/11/03 23:53:40;;;;;;;49.78;28.90;;;11.10;99.90;;;;;;5108772;28;20082;-83
2022/11/03 23:58:54;;;;;;;46.73;26.43;;;11.10;99.90;;;;;;5122987;27;20910;-85
